sensor_id;sensor_type;location;lat;lon;timestamp;temperature;humidity
52285;DHT22;38238;53.304;6.606;2022-09-03T00:01:27;17.10;84.20
52285;DHT22;38238;53.304;6.606;2022-09-03T00:04:09;17.10;84.20
52285;DHT22;38238;53.304;6.606;2022-09-03T00:06:47;17.10;84.40
52285;DHT22;38238;53.304;6.606;2022-09-03T00:09:35;17.10;84.50
52285;DHT22;38238;53.304;6.606;2022-09-03T00:12:22;17.00;84.60
52285;DHT22;38238;53.304;6.606;2022-09-03T00:14:54;17.00;84.60
52285;DHT22;38238;53.304;6.606;2022-09-03T00:18:18;17.00;84.60
52285;DHT22;38238;53.304;6.606;2022-09-03T00:20:38;16.90;84.70
52285;DHT22;38238;53.304;6.606;2022-09-03T00:23:06;16.90;84.90
52285;DHT22;38238;53.304;6.606;2022-09-03T00:25:37;16.90;84.90
52285;DHT22;38238;53.304;6.606;2022-09-03T00:28:10;16.80;85.50
52285;DHT22;38238;53.304;6.606;2022-09-03T00:30:37;16.80;84.80
52285;DHT22;38238;53.304;6.606;2022-09-03T00:33:16;16.80;85.10
52285;DHT22;38238;53.304;6.606;2022-09-03T00:36:09;16.70;85.10
52285;DHT22;38238;53.304;6.606;2022-09-03T00:38:37;16.70;85.30
52285;DHT22;38238;53.304;6.606;2022-09-03T00:46:59;16.60;85.50
52285;DHT22;38238;53.304;6.606;2022-09-03T00:52:59;16.50;85.70
52285;DHT22;38238;53.304;6.606;2022-09-03T01:01:21;16.50;85.80
52285;DHT22;38238;53.304;6.606;2022-09-03T01:03:58;16.50;85.90
52285;DHT22;38238;53.304;6.606;2022-09-03T01:06:38;16.40;85.90
52285;DHT22;38238;53.304;6.606;2022-09-03T01:15:07;16.30;86.20
52285;DHT22;38238;53.304;6.606;2022-09-03T01:28:15;16.20;86.60
52285;DHT22;38238;53.304;6.606;2022-09-03T01:30:56;16.20;86.80
52285;DHT22;38238;53.304;6.606;2022-09-03T01:33:33;16.10;86.90
52285;DHT22;38238;53.304;6.606;2022-09-03T01:38:54;16.10;87.00
52285;DHT22;38238;53.304;6.606;2022-09-03T01:44:49;16.00;87.30
52285;DHT22;38238;53.304;6.606;2022-09-03T01:50:35;16.00;87.30
52285;DHT22;38238;53.304;6.606;2022-09-03T01:53:09;16.00;87.40
52285;DHT22;38238;53.304;6.606;2022-09-03T01:59:26;16.00;87.60
52285;DHT22;38238;53.304;6.606;2022-09-03T02:02:04;15.90;87.60
52285;DHT22;38238;53.304;6.606;2022-09-03T02:04:32;15.90;87.70
52285;DHT22;38238;53.304;6.606;2022-09-03T02:07:00;16.00;87.70
52285;DHT22;38238;53.304;6.606;2022-09-03T02:09:27;16.00;87.90
52285;DHT22;38238;53.304;6.606;2022-09-03T02:11:56;16.00;88.00
52285;DHT22;38238;53.304;6.606;2022-09-03T02:14:25;16.00;87.90
52285;DHT22;38238;53.304;6.606;2022-09-03T02:16:52;15.90;87.90
52285;DHT22;38238;53.304;6.606;2022-09-03T02:19:19;15.90;88.10
52285;DHT22;38238;53.304;6.606;2022-09-03T02:21:49;15.90;88.20
52285;DHT22;38238;53.304;6.606;2022-09-03T02:24:16;15.90;88.40
52285;DHT22;38238;53.304;6.606;2022-09-03T02:26:42;15.80;88.50
52285;DHT22;38238;53.304;6.606;2022-09-03T02:29:08;15.80;88.60
52285;DHT22;38238;53.304;6.606;2022-09-03T02:31:35;15.80;88.70
52285;DHT22;38238;53.304;6.606;2022-09-03T02:34:01;15.80;88.90
52285;DHT22;38238;53.304;6.606;2022-09-03T02:36:31;15.80;89.00
52285;DHT22;38238;53.304;6.606;2022-09-03T02:38:59;15.80;89.00
52285;DHT22;38238;53.304;6.606;2022-09-03T02:41:24;15.70;89.00
52285;DHT22;38238;53.304;6.606;2022-09-03T02:47:03;15.70;89.00
52285;DHT22;38238;53.304;6.606;2022-09-03T02:49:29;15.70;89.20
52285;DHT22;38238;53.304;6.606;2022-09-03T02:52:00;15.60;89.20
52285;DHT22;38238;53.304;6.606;2022-09-03T02:54:26;15.60;89.20
52285;DHT22;38238;53.304;6.606;2022-09-03T02:56:53;15.60;89.40
52285;DHT22;38238;53.304;6.606;2022-09-03T02:59:19;15.60;89.40
52285;DHT22;38238;53.304;6.606;2022-09-03T03:01:47;15.60;89.50
52285;DHT22;38238;53.304;6.606;2022-09-03T03:04:13;15.50;89.50
52285;DHT22;38238;53.304;6.606;2022-09-03T03:06:39;15.50;89.50
52285;DHT22;38238;53.304;6.606;2022-09-03T03:09:04;15.50;89.50
52285;DHT22;38238;53.304;6.606;2022-09-03T03:11:31;15.50;89.50
52285;DHT22;38238;53.304;6.606;2022-09-03T03:13:57;15.40;89.50
52285;DHT22;38238;53.304;6.606;2022-09-03T03:16:23;15.40;89.80
52285;DHT22;38238;53.304;6.606;2022-09-03T03:18:48;15.40;89.90
52285;DHT22;38238;53.304;6.606;2022-09-03T03:21:17;15.40;90.00
52285;DHT22;38238;53.304;6.606;2022-09-03T03:23:43;15.30;90.00
52285;DHT22;38238;53.304;6.606;2022-09-03T03:26:14;15.30;90.00
52285;DHT22;38238;53.304;6.606;2022-09-03T03:28:42;15.30;90.10
52285;DHT22;38238;53.304;6.606;2022-09-03T03:31:19;15.30;90.10
52285;DHT22;38238;53.304;6.606;2022-09-03T03:33:55;15.20;90.10
52285;DHT22;38238;53.304;6.606;2022-09-03T03:36:23;15.20;90.10
52285;DHT22;38238;53.304;6.606;2022-09-03T03:38:51;15.20;90.30
52285;DHT22;38238;53.304;6.606;2022-09-03T03:41:20;15.10;90.20
52285;DHT22;38238;53.304;6.606;2022-09-03T03:43:47;15.10;90.30
52285;DHT22;38238;53.304;6.606;2022-09-03T03:46:16;15.10;90.40
52285;DHT22;38238;53.304;6.606;2022-09-03T03:48:42;15.10;90.40
52285;DHT22;38238;53.304;6.606;2022-09-03T03:51:09;15.10;90.40
52285;DHT22;38238;53.304;6.606;2022-09-03T03:53:36;15.10;90.40
52285;DHT22;38238;53.304;6.606;2022-09-03T03:56:05;15.10;90.50
52285;DHT22;38238;53.304;6.606;2022-09-03T03:58:32;15.10;90.50
52285;DHT22;38238;53.304;6.606;2022-09-03T04:01:06;15.10;90.50
52285;DHT22;38238;53.304;6.606;2022-09-03T04:03:33;15.10;90.50
52285;DHT22;38238;53.304;6.606;2022-09-03T04:05:59;15.10;90.60
52285;DHT22;38238;53.304;6.606;2022-09-03T04:08:26;15.10;90.80
52285;DHT22;38238;53.304;6.606;2022-09-03T04:10:52;15.10;90.60
52285;DHT22;38238;53.304;6.606;2022-09-03T04:13:17;15.20;90.60
52285;DHT22;38238;53.304;6.606;2022-09-03T04:15:43;15.10;90.60
52285;DHT22;38238;53.304;6.606;2022-09-03T04:18:09;15.10;90.60
52285;DHT22;38238;53.304;6.606;2022-09-03T04:20:35;15.10;90.60
52285;DHT22;38238;53.304;6.606;2022-09-03T04:23:02;15.10;90.60
52285;DHT22;38238;53.304;6.606;2022-09-03T04:25:27;15.20;90.70
52285;DHT22;38238;53.304;6.606;2022-09-03T04:27:53;15.20;90.70
52285;DHT22;38238;53.304;6.606;2022-09-03T04:30:19;15.20;90.70
52285;DHT22;38238;53.304;6.606;2022-09-03T04:32:48;15.20;90.80
52285;DHT22;38238;53.304;6.606;2022-09-03T04:35:22;15.20;90.80
52285;DHT22;38238;53.304;6.606;2022-09-03T04:37:48;15.20;90.80
52285;DHT22;38238;53.304;6.606;2022-09-03T04:40:14;15.20;90.80
52285;DHT22;38238;53.304;6.606;2022-09-03T04:42:39;15.20;90.90
52285;DHT22;38238;53.304;6.606;2022-09-03T04:45:06;15.20;90.80
52285;DHT22;38238;53.304;6.606;2022-09-03T04:47:32;15.20;90.90
52285;DHT22;38238;53.304;6.606;2022-09-03T04:49:58;15.20;90.90
52285;DHT22;38238;53.304;6.606;2022-09-03T04:52:23;15.20;91.00
52285;DHT22;38238;53.304;6.606;2022-09-03T04:54:49;15.20;91.00
52285;DHT22;38238;53.304;6.606;2022-09-03T04:57:15;15.10;91.00
52285;DHT22;38238;53.304;6.606;2022-09-03T04:59:41;15.10;91.00
52285;DHT22;38238;53.304;6.606;2022-09-03T05:02:07;15.10;91.30
52285;DHT22;38238;53.304;6.606;2022-09-03T05:04:34;15.10;91.20
52285;DHT22;38238;53.304;6.606;2022-09-03T05:07:00;15.00;91.20
52285;DHT22;38238;53.304;6.606;2022-09-03T05:09:26;15.00;91.20
52285;DHT22;38238;53.304;6.606;2022-09-03T05:11:52;15.00;91.30
52285;DHT22;38238;53.304;6.606;2022-09-03T05:14:18;15.00;91.30
52285;DHT22;38238;53.304;6.606;2022-09-03T05:16:44;14.90;91.30
52285;DHT22;38238;53.304;6.606;2022-09-03T05:19:09;14.90;91.30
52285;DHT22;38238;53.304;6.606;2022-09-03T05:21:37;14.90;91.40
52285;DHT22;38238;53.304;6.606;2022-09-03T05:24:03;14.90;91.50
52285;DHT22;38238;53.304;6.606;2022-09-03T05:26:31;14.80;91.50
52285;DHT22;38238;53.304;6.606;2022-09-03T05:29:00;14.90;91.60
52285;DHT22;38238;53.304;6.606;2022-09-03T05:31:28;14.80;91.60
52285;DHT22;38238;53.304;6.606;2022-09-03T05:33:58;14.80;91.70
52285;DHT22;38238;53.304;6.606;2022-09-03T05:36:27;14.80;91.70
52285;DHT22;38238;53.304;6.606;2022-09-03T05:38:53;14.80;91.70
52285;DHT22;38238;53.304;6.606;2022-09-03T05:41:19;14.80;91.80
52285;DHT22;38238;53.304;6.606;2022-09-03T05:43:50;14.80;91.80
52285;DHT22;38238;53.304;6.606;2022-09-03T05:46:20;14.80;91.80
52285;DHT22;38238;53.304;6.606;2022-09-03T05:48:46;14.80;91.90
52285;DHT22;38238;53.304;6.606;2022-09-03T05:51:13;14.80;91.90
52285;DHT22;38238;53.304;6.606;2022-09-03T05:53:42;14.80;91.90
52285;DHT22;38238;53.304;6.606;2022-09-03T05:56:13;14.90;91.90
52285;DHT22;38238;53.304;6.606;2022-09-03T05:58:44;14.80;91.90
52285;DHT22;38238;53.304;6.606;2022-09-03T06:01:14;14.80;91.90
52285;DHT22;38238;53.304;6.606;2022-09-03T06:03:41;14.80;92.00
52285;DHT22;38238;53.304;6.606;2022-09-03T06:06:08;14.90;92.00
52285;DHT22;38238;53.304;6.606;2022-09-03T06:08:34;14.90;92.10
52285;DHT22;38238;53.304;6.606;2022-09-03T06:11:03;14.90;92.10
52285;DHT22;38238;53.304;6.606;2022-09-03T06:13:32;14.90;92.10
52285;DHT22;38238;53.304;6.606;2022-09-03T06:16:00;14.90;92.00
52285;DHT22;38238;53.304;6.606;2022-09-03T06:18:27;14.90;92.10
52285;DHT22;38238;53.304;6.606;2022-09-03T06:21:05;15.00;92.20
52285;DHT22;38238;53.304;6.606;2022-09-03T06:23:32;15.00;92.20
52285;DHT22;38238;53.304;6.606;2022-09-03T06:26:07;15.00;92.20
52285;DHT22;38238;53.304;6.606;2022-09-03T06:28:34;15.10;92.10
52285;DHT22;38238;53.304;6.606;2022-09-03T06:31:01;15.10;92.20
52285;DHT22;38238;53.304;6.606;2022-09-03T06:33:28;15.20;92.30
52285;DHT22;38238;53.304;6.606;2022-09-03T06:36:02;15.20;92.10
52285;DHT22;38238;53.304;6.606;2022-09-03T06:38:30;15.30;92.10
52285;DHT22;38238;53.304;6.606;2022-09-03T06:40:58;15.30;92.10
52285;DHT22;38238;53.304;6.606;2022-09-03T06:43:30;15.40;92.10
52285;DHT22;38238;53.304;6.606;2022-09-03T06:46:02;15.40;92.10
52285;DHT22;38238;53.304;6.606;2022-09-03T06:48:30;15.40;92.00
52285;DHT22;38238;53.304;6.606;2022-09-03T06:50:58;15.50;92.10
52285;DHT22;38238;53.304;6.606;2022-09-03T06:53:27;15.50;92.10
52285;DHT22;38238;53.304;6.606;2022-09-03T06:56:00;15.60;91.90
52285;DHT22;38238;53.304;6.606;2022-09-03T06:58:31;15.60;91.90
52285;DHT22;38238;53.304;6.606;2022-09-03T07:01:04;15.70;91.90
52285;DHT22;38238;53.304;6.606;2022-09-03T07:03:33;15.70;91.90
52285;DHT22;38238;53.304;6.606;2022-09-03T07:06:01;15.80;91.90
52285;DHT22;38238;53.304;6.606;2022-09-03T07:08:27;15.80;91.80
52285;DHT22;38238;53.304;6.606;2022-09-03T07:10:54;15.90;91.80
52285;DHT22;38238;53.304;6.606;2022-09-03T07:13:20;15.90;91.70
52285;DHT22;38238;53.304;6.606;2022-09-03T07:15:46;16.00;91.60
52285;DHT22;38238;53.304;6.606;2022-09-03T07:18:11;16.00;91.50
52285;DHT22;38238;53.304;6.606;2022-09-03T07:20:37;16.10;91.50
52285;DHT22;38238;53.304;6.606;2022-09-03T07:23:03;16.10;91.40
52285;DHT22;38238;53.304;6.606;2022-09-03T07:25:28;16.20;91.40
52285;DHT22;38238;53.304;6.606;2022-09-03T07:27:55;16.20;91.30
52285;DHT22;38238;53.304;6.606;2022-09-03T07:30:22;16.30;91.20
52285;DHT22;38238;53.304;6.606;2022-09-03T07:32:50;16.30;91.30
52285;DHT22;38238;53.304;6.606;2022-09-03T07:35:16;16.40;91.30
52285;DHT22;38238;53.304;6.606;2022-09-03T07:37:43;16.40;91.20
52285;DHT22;38238;53.304;6.606;2022-09-03T07:40:12;16.50;91.20
52285;DHT22;38238;53.304;6.606;2022-09-03T07:42:40;16.60;91.20
52285;DHT22;38238;53.304;6.606;2022-09-03T07:45:06;16.60;91.10
52285;DHT22;38238;53.304;6.606;2022-09-03T07:47:35;16.60;91.10
52285;DHT22;38238;53.304;6.606;2022-09-03T07:50:03;16.70;91.20
52285;DHT22;38238;53.304;6.606;2022-09-03T07:52:29;16.80;91.10
52285;DHT22;38238;53.304;6.606;2022-09-03T07:54:54;16.90;91.20
52285;DHT22;38238;53.304;6.606;2022-09-03T07:57:21;17.00;91.10
52285;DHT22;38238;53.304;6.606;2022-09-03T07:59:46;17.10;91.00
52285;DHT22;38238;53.304;6.606;2022-09-03T08:02:12;17.10;90.90
52285;DHT22;38238;53.304;6.606;2022-09-03T08:04:38;17.20;90.80
52285;DHT22;38238;53.304;6.606;2022-09-03T08:07:05;17.30;90.70
52285;DHT22;38238;53.304;6.606;2022-09-03T08:09:31;17.40;90.70
52285;DHT22;38238;53.304;6.606;2022-09-03T08:11:57;17.50;90.40
52285;DHT22;38238;53.304;6.606;2022-09-03T08:14:23;17.50;90.40
52285;DHT22;38238;53.304;6.606;2022-09-03T08:16:49;17.50;90.40
52285;DHT22;38238;53.304;6.606;2022-09-03T08:19:16;17.60;90.40
52285;DHT22;38238;53.304;6.606;2022-09-03T08:21:43;17.70;90.40
52285;DHT22;38238;53.304;6.606;2022-09-03T08:24:10;17.80;90.40
52285;DHT22;38238;53.304;6.606;2022-09-03T08:26:38;17.90;90.30
52285;DHT22;38238;53.304;6.606;2022-09-03T08:29:05;18.00;90.20
52285;DHT22;38238;53.304;6.606;2022-09-03T08:31:31;18.00;90.10
52285;DHT22;38238;53.304;6.606;2022-09-03T08:33:59;18.10;90.00
52285;DHT22;38238;53.304;6.606;2022-09-03T08:36:30;18.20;89.80
52285;DHT22;38238;53.304;6.606;2022-09-03T08:38:57;18.20;89.60
52285;DHT22;38238;53.304;6.606;2022-09-03T08:52:02;18.60;88.90
52285;DHT22;38238;53.304;6.606;2022-09-03T08:54:31;18.60;88.50
52285;DHT22;38238;53.304;6.606;2022-09-03T08:57:00;18.70;88.50
52285;DHT22;38238;53.304;6.606;2022-09-03T08:59:28;18.70;88.60
52285;DHT22;38238;53.304;6.606;2022-09-03T09:02:22;18.90;88.40
52285;DHT22;38238;53.304;6.606;2022-09-03T09:04:56;19.00;87.80
52285;DHT22;38238;53.304;6.606;2022-09-03T09:07:36;19.00;87.10
52285;DHT22;38238;53.304;6.606;2022-09-03T09:15:33;19.30;87.20
52285;DHT22;38238;53.304;6.606;2022-09-03T09:18:35;19.40;87.00
52285;DHT22;38238;53.304;6.606;2022-09-03T09:21:32;19.50;86.70
52285;DHT22;38238;53.304;6.606;2022-09-03T09:24:07;19.60;86.60
52285;DHT22;38238;53.304;6.606;2022-09-03T09:26:39;19.70;86.40
52285;DHT22;38238;53.304;6.606;2022-09-03T09:29:08;19.90;86.70
52285;DHT22;38238;53.304;6.606;2022-09-03T09:31:37;20.50;86.80
52285;DHT22;38238;53.304;6.606;2022-09-03T09:34:04;21.70;85.80
52285;DHT22;38238;53.304;6.606;2022-09-03T09:36:39;22.70;83.30
52285;DHT22;38238;53.304;6.606;2022-09-03T09:39:10;23.60;81.20
52285;DHT22;38238;53.304;6.606;2022-09-03T09:41:36;24.30;79.90
52285;DHT22;38238;53.304;6.606;2022-09-03T09:44:03;24.80;78.40
52285;DHT22;38238;53.304;6.606;2022-09-03T09:46:37;25.00;77.00
52285;DHT22;38238;53.304;6.606;2022-09-03T09:49:17;25.20;76.70
52285;DHT22;38238;53.304;6.606;2022-09-03T09:51:46;25.50;76.20
52285;DHT22;38238;53.304;6.606;2022-09-03T09:54:15;25.80;76.00
52285;DHT22;38238;53.304;6.606;2022-09-03T09:56:43;25.90;74.50
52285;DHT22;38238;53.304;6.606;2022-09-03T09:59:10;26.00;74.70
52285;DHT22;38238;53.304;6.606;2022-09-03T10:01:41;26.10;73.90
52285;DHT22;38238;53.304;6.606;2022-09-03T10:04:19;26.20;74.00
52285;DHT22;38238;53.304;6.606;2022-09-03T10:06:53;26.40;73.70
52285;DHT22;38238;53.304;6.606;2022-09-03T10:14:48;26.80;73.10
52285;DHT22;38238;53.304;6.606;2022-09-03T10:23:00;26.80;70.50
52285;DHT22;38238;53.304;6.606;2022-09-03T10:28:06;26.90;70.00
52285;DHT22;38238;53.304;6.606;2022-09-03T10:30:40;26.80;70.40
52285;DHT22;38238;53.304;6.606;2022-09-03T10:33:32;26.90;69.90
52285;DHT22;38238;53.304;6.606;2022-09-03T10:39:24;26.90;69.50
52285;DHT22;38238;53.304;6.606;2022-09-03T10:59:14;27.00;66.90
52285;DHT22;38238;53.304;6.606;2022-09-03T11:02:07;27.10;66.80
52285;DHT22;38238;53.304;6.606;2022-09-03T11:05:02;27.20;66.30
52285;DHT22;38238;53.304;6.606;2022-09-03T11:07:40;27.30;65.80
52285;DHT22;38238;53.304;6.606;2022-09-03T11:12:39;27.20;65.80
52285;DHT22;38238;53.304;6.606;2022-09-03T11:15:13;27.30;65.60
52285;DHT22;38238;53.304;6.606;2022-09-03T11:17:46;27.40;65.30
52285;DHT22;38238;53.304;6.606;2022-09-03T11:20:21;27.40;64.60
52285;DHT22;38238;53.304;6.606;2022-09-03T11:22:50;27.30;64.00
52285;DHT22;38238;53.304;6.606;2022-09-03T11:25:20;27.30;64.10
52285;DHT22;38238;53.304;6.606;2022-09-03T11:33:19;27.70;63.30
52285;DHT22;38238;53.304;6.606;2022-09-03T11:35:48;27.80;63.30
52285;DHT22;38238;53.304;6.606;2022-09-03T11:38:20;27.90;62.90
52285;DHT22;38238;53.304;6.606;2022-09-03T11:48:49;28.00;61.40
52285;DHT22;38238;53.304;6.606;2022-09-03T11:51:20;28.00;61.10
52285;DHT22;38238;53.304;6.606;2022-09-03T11:53:58;28.00;61.60
52285;DHT22;38238;53.304;6.606;2022-09-03T11:56:24;28.00;61.20
52285;DHT22;38238;53.304;6.606;2022-09-03T12:01:31;28.10;60.40
52285;DHT22;38238;53.304;6.606;2022-09-03T12:04:04;28.20;60.50
52285;DHT22;38238;53.304;6.606;2022-09-03T12:14:48;28.60;59.80
52285;DHT22;38238;53.304;6.606;2022-09-03T12:19:53;28.70;59.70
52285;DHT22;38238;53.304;6.606;2022-09-03T12:22:21;28.70;59.60
52285;DHT22;38238;53.304;6.606;2022-09-03T12:24:47;28.60;59.30
52285;DHT22;38238;53.304;6.606;2022-09-03T12:27:21;28.60;59.60
52285;DHT22;38238;53.304;6.606;2022-09-03T12:29:57;28.50;59.30
52285;DHT22;38238;53.304;6.606;2022-09-03T12:32:28;28.20;59.40
52285;DHT22;38238;53.304;6.606;2022-09-03T12:34:55;28.00;59.50
52285;DHT22;38238;53.304;6.606;2022-09-03T12:37:23;27.70;59.90
52285;DHT22;38238;53.304;6.606;2022-09-03T12:39:54;27.40;60.50
52285;DHT22;38238;53.304;6.606;2022-09-03T12:42:25;27.20;60.80
52285;DHT22;38238;53.304;6.606;2022-09-03T12:44:51;27.00;60.90
52285;DHT22;38238;53.304;6.606;2022-09-03T12:47:19;26.70;60.80
52285;DHT22;38238;53.304;6.606;2022-09-03T12:49:48;26.20;60.50
52285;DHT22;38238;53.304;6.606;2022-09-03T12:52:24;26.40;60.60
52285;DHT22;38238;53.304;6.606;2022-09-03T12:55:07;26.30;60.90
52285;DHT22;38238;53.304;6.606;2022-09-03T12:57:43;26.20;60.90
52285;DHT22;38238;53.304;6.606;2022-09-03T13:00:13;26.10;61.00
52285;DHT22;38238;53.304;6.606;2022-09-03T13:02:52;26.10;61.20
52285;DHT22;38238;53.304;6.606;2022-09-03T13:05:24;26.10;61.00
52285;DHT22;38238;53.304;6.606;2022-09-03T13:07:56;26.10;61.50
52285;DHT22;38238;53.304;6.606;2022-09-03T13:10:31;26.10;61.30
52285;DHT22;38238;53.304;6.606;2022-09-03T13:13:00;26.10;61.00
52285;DHT22;38238;53.304;6.606;2022-09-03T13:15:27;26.10;60.70
52285;DHT22;38238;53.304;6.606;2022-09-03T13:20:52;26.10;60.70
52285;DHT22;38238;53.304;6.606;2022-09-03T13:33:48;26.30;60.30
52285;DHT22;38238;53.304;6.606;2022-09-03T13:36:16;26.30;59.90
52285;DHT22;38238;53.304;6.606;2022-09-03T13:44:13;26.30;60.00
52285;DHT22;38238;53.304;6.606;2022-09-03T13:54:59;26.50;60.30
52285;DHT22;38238;53.304;6.606;2022-09-03T14:00:11;26.70;60.50
52285;DHT22;38238;53.304;6.606;2022-09-03T14:02:57;26.80;60.00
52285;DHT22;38238;53.304;6.606;2022-09-03T14:08:29;26.80;60.00
52285;DHT22;38238;53.304;6.606;2022-09-03T14:11:08;26.90;60.00
52285;DHT22;38238;53.304;6.606;2022-09-03T14:19:18;26.90;59.80
52285;DHT22;38238;53.304;6.606;2022-09-03T14:21:58;26.90;60.40
52285;DHT22;38238;53.304;6.606;2022-09-03T14:27:26;27.00;59.30
52285;DHT22;38238;53.304;6.606;2022-09-03T14:30:06;27.00;59.10
52285;DHT22;38238;53.304;6.606;2022-09-03T14:35:27;27.10;59.30
52285;DHT22;38238;53.304;6.606;2022-09-03T14:48:57;27.30;60.00
52285;DHT22;38238;53.304;6.606;2022-09-03T15:00:24;27.30;59.50
52285;DHT22;38238;53.304;6.606;2022-09-03T15:05:57;27.30;59.10
52285;DHT22;38238;53.304;6.606;2022-09-03T15:11:30;27.30;60.20
52285;DHT22;38238;53.304;6.606;2022-09-03T15:14:34;27.10;61.00
52285;DHT22;38238;53.304;6.606;2022-09-03T15:20:43;26.90;60.40
52285;DHT22;38238;53.304;6.606;2022-09-03T15:25:54;26.50;60.60
52285;DHT22;38238;53.304;6.606;2022-09-03T15:28:43;26.50;60.90
52285;DHT22;38238;53.304;6.606;2022-09-03T15:31:45;26.40;61.00
52285;DHT22;38238;53.304;6.606;2022-09-03T15:36:51;26.30;61.70
52285;DHT22;38238;53.304;6.606;2022-09-03T15:39:26;26.40;61.50
52285;DHT22;38238;53.304;6.606;2022-09-03T15:42:20;26.30;61.50
52285;DHT22;38238;53.304;6.606;2022-09-03T15:44:51;26.30;61.10
52285;DHT22;38238;53.304;6.606;2022-09-03T15:47:52;26.20;61.80
52285;DHT22;38238;53.304;6.606;2022-09-03T15:50:47;26.10;61.60
52285;DHT22;38238;53.304;6.606;2022-09-03T15:53:32;26.00;61.40
52285;DHT22;38238;53.304;6.606;2022-09-03T16:01:53;25.70;62.10
52285;DHT22;38238;53.304;6.606;2022-09-03T16:04:42;25.60;62.00
52285;DHT22;38238;53.304;6.606;2022-09-03T16:15:11;25.50;62.60
52285;DHT22;38238;53.304;6.606;2022-09-03T16:17:55;25.40;62.80
52285;DHT22;38238;53.304;6.606;2022-09-03T16:20:35;25.40;63.10
52285;DHT22;38238;53.304;6.606;2022-09-03T16:23:19;25.40;63.20
52285;DHT22;38238;53.304;6.606;2022-09-03T16:26:00;25.30;63.30
52285;DHT22;38238;53.304;6.606;2022-09-03T16:28:52;25.30;63.50
52285;DHT22;38238;53.304;6.606;2022-09-03T16:42:05;25.00;64.00
52285;DHT22;38238;53.304;6.606;2022-09-03T16:50:25;24.80;64.50
52285;DHT22;38238;53.304;6.606;2022-09-03T16:56:29;24.70;65.00
52285;DHT22;38238;53.304;6.606;2022-09-03T17:07:15;24.40;65.60
52285;DHT22;38238;53.304;6.606;2022-09-03T17:15:39;24.20;66.50
52285;DHT22;38238;53.304;6.606;2022-09-03T17:21:05;24.20;66.50
52285;DHT22;38238;53.304;6.606;2022-09-03T17:24:04;24.10;66.50
52285;DHT22;38238;53.304;6.606;2022-09-03T17:35:19;23.80;67.20
52285;DHT22;38238;53.304;6.606;2022-09-03T17:40:47;23.70;67.60
52285;DHT22;38238;53.304;6.606;2022-09-03T17:43:30;23.60;67.80
52285;DHT22;38238;53.304;6.606;2022-09-03T17:46:09;23.50;68.00
52285;DHT22;38238;53.304;6.606;2022-09-03T17:48:52;23.40;68.00
52285;DHT22;38238;53.304;6.606;2022-09-03T17:51:46;23.40;68.30
52285;DHT22;38238;53.304;6.606;2022-09-03T17:54:39;23.30;68.50
52285;DHT22;38238;53.304;6.606;2022-09-03T17:57:28;23.20;68.80
52285;DHT22;38238;53.304;6.606;2022-09-03T18:00:06;23.10;68.90
52285;DHT22;38238;53.304;6.606;2022-09-03T18:05:28;23.00;69.30
52285;DHT22;38238;53.304;6.606;2022-09-03T18:08:06;22.90;69.40
52285;DHT22;38238;53.304;6.606;2022-09-03T18:13:34;22.80;69.70
52285;DHT22;38238;53.304;6.606;2022-09-03T18:16:09;22.70;69.70
52285;DHT22;38238;53.304;6.606;2022-09-03T18:18:42;22.70;69.80
52285;DHT22;38238;53.304;6.606;2022-09-03T18:21:20;22.50;69.90
52285;DHT22;38238;53.304;6.606;2022-09-03T18:27:03;22.40;70.70
52285;DHT22;38238;53.304;6.606;2022-09-03T18:30:11;22.30;71.20
52285;DHT22;38238;53.304;6.606;2022-09-03T18:32:55;22.10;71.40
52285;DHT22;38238;53.304;6.606;2022-09-03T18:35:42;22.10;71.60
52285;DHT22;38238;53.304;6.606;2022-09-03T18:38:34;21.90;71.60
52285;DHT22;38238;53.304;6.606;2022-09-03T18:44:39;21.80;72.00
52285;DHT22;38238;53.304;6.606;2022-09-03T18:50:35;21.70;72.30
52285;DHT22;38238;53.304;6.606;2022-09-03T18:54:04;21.60;72.30
52285;DHT22;38238;53.304;6.606;2022-09-03T18:56:52;21.60;72.50
52285;DHT22;38238;53.304;6.606;2022-09-03T19:02:53;21.30;72.50
52285;DHT22;38238;53.304;6.606;2022-09-03T19:08:52;21.40;72.80
52285;DHT22;38238;53.304;6.606;2022-09-03T19:20:50;21.20;73.20
52285;DHT22;38238;53.304;6.606;2022-09-03T19:23:38;21.20;73.30
52285;DHT22;38238;53.304;6.606;2022-09-03T19:26:47;21.10;73.60
52285;DHT22;38238;53.304;6.606;2022-09-03T19:30:01;21.10;73.40
52285;DHT22;38238;53.304;6.606;2022-09-03T19:42:04;20.90;73.40
52285;DHT22;38238;53.304;6.606;2022-09-03T19:48:14;20.80;73.50
52285;DHT22;38238;53.304;6.606;2022-09-03T19:51:10;20.80;73.50
52285;DHT22;38238;53.304;6.606;2022-09-03T19:53:58;20.80;73.60
52285;DHT22;38238;53.304;6.606;2022-09-03T19:56:45;20.70;73.50
52285;DHT22;38238;53.304;6.606;2022-09-03T19:59:35;20.70;73.40
52285;DHT22;38238;53.304;6.606;2022-09-03T20:02:23;20.70;73.20
52285;DHT22;38238;53.304;6.606;2022-09-03T20:05:11;20.70;73.10
52285;DHT22;38238;53.304;6.606;2022-09-03T20:07:57;20.70;73.10
52285;DHT22;38238;53.304;6.606;2022-09-03T20:10:43;20.70;73.10
52285;DHT22;38238;53.304;6.606;2022-09-03T20:13:15;20.70;73.00
52285;DHT22;38238;53.304;6.606;2022-09-03T20:18:45;20.60;73.00
52285;DHT22;38238;53.304;6.606;2022-09-03T20:29:45;20.50;73.10
52285;DHT22;38238;53.304;6.606;2022-09-03T20:34:55;20.40;73.10
52285;DHT22;38238;53.304;6.606;2022-09-03T20:49:00;20.20;73.20
52285;DHT22;38238;53.304;6.606;2022-09-03T20:51:57;20.30;73.20
52285;DHT22;38238;53.304;6.606;2022-09-03T20:54:30;20.20;73.20
52285;DHT22;38238;53.304;6.606;2022-09-03T20:59:54;20.10;73.10
52285;DHT22;38238;53.304;6.606;2022-09-03T21:02:40;20.20;73.00
52285;DHT22;38238;53.304;6.606;2022-09-03T21:05:33;20.10;73.00
52285;DHT22;38238;53.304;6.606;2022-09-03T21:14:05;20.10;72.90
52285;DHT22;38238;53.304;6.606;2022-09-03T21:16:41;20.00;72.80
52285;DHT22;38238;53.304;6.606;2022-09-03T21:22:05;20.00;72.80
52285;DHT22;38238;53.304;6.606;2022-09-03T21:24:43;20.00;72.90
52285;DHT22;38238;53.304;6.606;2022-09-03T21:27:19;20.00;72.90
52285;DHT22;38238;53.304;6.606;2022-09-03T21:30:02;19.90;73.00
52285;DHT22;38238;53.304;6.606;2022-09-03T21:32:50;19.90;73.00
52285;DHT22;38238;53.304;6.606;2022-09-03T21:37:50;19.80;73.30
52285;DHT22;38238;53.304;6.606;2022-09-03T21:40:19;19.80;73.30
52285;DHT22;38238;53.304;6.606;2022-09-03T21:42:51;19.80;73.30
52285;DHT22;38238;53.304;6.606;2022-09-03T21:45:37;19.70;73.20
52285;DHT22;38238;53.304;6.606;2022-09-03T21:48:09;19.60;73.30
52285;DHT22;38238;53.304;6.606;2022-09-03T21:50:51;19.60;73.50
52285;DHT22;38238;53.304;6.606;2022-09-03T21:54:00;19.60;73.70
52285;DHT22;38238;53.304;6.606;2022-09-03T22:02:07;19.50;74.00
52285;DHT22;38238;53.304;6.606;2022-09-03T22:04:35;19.40;73.90
52285;DHT22;38238;53.304;6.606;2022-09-03T22:14:55;19.20;74.10